Time;durP1;ratioP1;P1;durP2;ratioP2;P2;SDS_P1;SDS_P2;PMS_P1;PMS_P2;Temp;Humidity;BMP_temperature;BMP_pressure;BME280_temperature;BME280_humidity;BME280_pressure;Samples;Min_cycle;Max_cycle;Signal;HPM_P1;HPM_P2
2022/03/26 00:01:04;;;;;;;17.17;10.73;;;;;;;;;;5138946;27;20186;-74
2022/03/26 00:03:30;;;;;;;18.33;10.43;;;;;;;;;;5157222;27;20162;-75
2022/03/26 00:05:56;;;;;;;19.10;10.83;;;;;;;;;;5157261;27;20221;-75
2022/03/26 00:08:22;;;;;;;17.43;10.57;;;;;;;;;;5157559;27;20622;-74
2022/03/26 00:10:48;;;;;;;18.43;10.13;;;;;;;;;;5138949;27;20198;-75
2022/03/26 00:13:15;;;;;;;18.77;10.10;;;;;;;;;;5138550;27;20553;-75
2022/03/26 00:15:41;;;;;;;15.93;10.43;;;;;;;;;;5138962;27;20186;-74
2022/03/26 00:18:07;;;;;;;17.93;10.50;;;;;;;;;;5132222;27;20194;-75
2022/03/26 00:20:33;;;;;;;20.17;10.63;;;;;;;;;;5136542;27;20203;-75
2022/03/26 00:22:59;;;;;;;19.97;10.93;;;;;;;;;;5100788;27;20179;-75
2022/03/26 00:25:25;;;;;;;18.23;10.70;;;;;;;;;;5100954;27;20179;-75
2022/03/26 00:27:52;;;;;;;18.97;10.60;;;;;;;;;;5100954;27;20588;-74
2022/03/26 00:30:18;;;;;;;18.33;10.70;;;;;;;;;;5117954;27;20242;-74
2022/03/26 00:32:44;;;;;;;20.00;10.83;;;;;;;;;;5100896;27;20657;-75
2022/03/26 00:35:10;;;;;;;18.73;10.23;;;;;;;;;;5099798;27;20178;-74
2022/03/26 00:37:41;;;;;;;17.30;10.70;;;;;;;;;;5118162;27;20178;-74
2022/03/26 00:40:07;;;;;;;18.03;10.40;;;;;;;;;;5117503;27;20218;-74
2022/03/26 00:42:34;;;;;;;19.40;10.63;;;;;;;;;;5117478;27;20170;-75
2022/03/26 00:45:00;;;;;;;21.07;11.23;;;;;;;;;;5117836;27;20644;-74
2022/03/26 00:47:26;;;;;;;19.43;11.37;;;;;;;;;;5117412;27;20223;-74
2022/03/26 00:49:54;;;;;;;19.40;11.03;;;;;;;;;;5135997;27;20191;-74
2022/03/26 00:52:20;;;;;;;19.40;10.97;;;;;;;;;;5117459;27;20175;-74
2022/03/26 00:54:46;;;;;;;19.57;10.97;;;;;;;;;;5117630;27;20236;-75
2022/03/26 00:57:12;;;;;;;17.83;10.80;;;;;;;;;;5100888;27;20177;-75
2022/03/26 00:59:38;;;;;;;16.37;10.03;;;;;;;;;;5100575;27;20213;-74
2022/03/26 01:02:05;;;;;;;17.87;11.20;;;;;;;;;;5117104;27;20182;-75
2022/03/26 01:04:31;;;;;;;17.97;10.90;;;;;;;;;;5100477;27;20174;-74
2022/03/26 01:06:58;;;;;;;19.77;10.57;;;;;;;;;;5116725;27;20221;-75
2022/03/26 01:09:24;;;;;;;20.27;10.33;;;;;;;;;;5117079;27;20205;-74
2022/03/26 01:11:50;;;;;;;19.43;11.53;;;;;;;;;;5100105;27;20744;-74
2022/03/26 01:14:16;;;;;;;20.90;11.53;;;;;;;;;;5100225;27;20178;-74
2022/03/26 01:16:43;;;;;;;18.50;10.90;;;;;;;;;;5116947;27;20181;-74
2022/03/26 01:19:09;;;;;;;16.27;10.70;;;;;;;;;;5117028;27;20194;-75
2022/03/26 01:21:35;;;;;;;21.43;11.30;;;;;;;;;;5100218;27;20193;-74
2022/03/26 01:24:01;;;;;;;17.23;9.77;;;;;;;;;;5117175;27;20238;-74
2022/03/26 01:26:27;;;;;;;17.87;10.33;;;;;;;;;;5100305;27;20186;-74
2022/03/26 01:28:53;;;;;;;19.63;10.70;;;;;;;;;;5117065;27;20548;-74
2022/03/26 01:31:20;;;;;;;16.87;11.00;;;;;;;;;;5134775;27;20216;-74
2022/03/26 01:33:50;;;;;;;18.60;10.90;;;;;;;;;;5100240;27;20185;-74
2022/03/26 01:36:16;;;;;;;18.77;10.97;;;;;;;;;;5116987;27;20178;-74
2022/03/26 01:38:42;;;;;;;18.87;10.53;;;;;;;;;;5099881;27;20226;-74
2022/03/26 01:41:09;;;;;;;22.23;11.30;;;;;;;;;;5116625;27;20705;-74
2022/03/26 01:43:35;;;;;;;18.90;11.10;;;;;;;;;;5116598;27;20212;-74
2022/03/26 01:46:01;;;;;;;20.00;11.37;;;;;;;;;;5134550;27;20640;-74
2022/03/26 01:48:27;;;;;;;19.73;11.00;;;;;;;;;;5099729;27;20192;-74
2022/03/26 01:50:53;;;;;;;16.80;10.00;;;;;;;;;;5099786;27;20201;-74
2022/03/26 01:53:19;;;;;;;20.07;10.90;;;;;;;;;;5116033;27;20182;-75
2022/03/26 01:55:45;;;;;;;17.13;10.80;;;;;;;;;;5134540;27;20585;-74
2022/03/26 01:58:11;;;;;;;19.93;10.53;;;;;;;;;;5116451;27;20173;-75
2022/03/26 02:00:37;;;;;;;16.80;10.80;;;;;;;;;;5116135;27;20265;-74
2022/03/26 02:03:04;;;;;;;20.27;11.40;;;;;;;;;;5099006;27;20185;-75
2022/03/26 02:05:30;;;;;;;19.33;11.50;;;;;;;;;;5099448;27;20177;-74
2022/03/26 02:07:56;;;;;;;17.93;10.53;;;;;;;;;;5134307;27;20206;-74
2022/03/26 02:10:22;;;;;;;17.97;10.57;;;;;;;;;;5115886;27;20202;-74
2022/03/26 02:12:48;;;;;;;18.63;11.50;;;;;;;;;;5099144;27;20655;-75
2022/03/26 02:15:16;;;;;;;19.70;11.60;;;;;;;;;;5116255;27;20535;-75
2022/03/26 02:17:42;;;;;;;17.80;11.03;;;;;;;;;;5099164;27;20190;-74
2022/03/26 02:20:10;;;;;;;18.93;11.23;;;;;;;;;;5115664;28;20221;-75
2022/03/26 02:22:37;;;;;;;20.27;11.70;;;;;;;;;;5116001;27;20174;-75
2022/03/26 02:25:03;;;;;;;18.97;11.97;;;;;;;;;;5115780;27;20273;-75
2022/03/26 02:27:30;;;;;;;17.33;10.53;;;;;;;;;;5115660;27;20230;-75
2022/03/26 02:29:56;;;;;;;18.73;10.73;;;;;;;;;;5169144;22;20218;-75
2022/03/26 02:32:23;;;;;;;19.70;10.93;;;;;;;;;;5111986;28;20262;-74
2022/03/26 02:34:50;;;;;;;20.17;10.57;;;;;;;;;;5112558;28;20177;-75
2022/03/26 02:37:16;;;;;;;19.13;10.57;;;;;;;;;;5095430;28;20182;-75
2022/03/26 02:39:43;;;;;;;20.53;10.97;;;;;;;;;;5111772;28;20575;-75
2022/03/26 02:42:09;;;;;;;16.97;10.33;;;;;;;;;;5111814;28;20644;-75
2022/03/26 02:44:35;;;;;;;17.70;10.57;;;;;;;;;;5111944;28;20178;-74
2022/03/26 02:47:01;;;;;;;20.53;11.60;;;;;;;;;;5094967;28;20177;-75
2022/03/26 02:49:27;;;;;;;21.33;11.10;;;;;;;;;;5095222;28;20243;-75
2022/03/26 02:51:53;;;;;;;19.47;10.83;;;;;;;;;;5095153;28;20189;-75
2022/03/26 02:54:19;;;;;;;17.63;10.27;;;;;;;;;;5094976;28;20189;-75
2022/03/26 02:56:49;;;;;;;19.70;11.20;;;;;;;;;;5111970;28;20177;-75
2022/03/26 02:59:16;;;;;;;19.43;11.20;;;;;;;;;;5097713;28;20202;-75
2022/03/26 03:01:42;;;;;;;20.53;11.27;;;;;;;;;;5116109;28;20194;-75
2022/03/26 03:04:08;;;;;;;21.27;11.47;;;;;;;;;;5099151;28;20180;-74
2022/03/26 03:06:34;;;;;;;19.77;10.63;;;;;;;;;;5116308;28;20174;-75
2022/03/26 03:09:01;;;;;;;22.07;11.13;;;;;;;;;;5116265;28;20177;-75
2022/03/26 03:11:27;;;;;;;20.40;10.63;;;;;;;;;;5098741;28;20197;-75
2022/03/26 03:13:53;;;;;;;18.63;11.00;;;;;;;;;;5116102;28;20184;-75
2022/03/26 03:16:19;;;;;;;19.13;11.17;;;;;;;;;;5099149;28;20181;-75
2022/03/26 03:18:45;;;;;;;17.97;10.93;;;;;;;;;;5116976;28;20178;-75
2022/03/26 03:21:11;;;;;;;20.43;11.80;;;;;;;;;;5098957;28;20198;-75
2022/03/26 03:23:37;;;;;;;24.53;11.77;;;;;;;;;;5098942;28;20219;-75
2022/03/26 03:26:04;;;;;;;21.77;11.60;;;;;;;;;;5115647;28;20173;-75
2022/03/26 03:28:30;;;;;;;19.80;11.53;;;;;;;;;;5098956;28;20239;-75
2022/03/26 03:30:56;;;;;;;20.03;11.43;;;;;;;;;;5098695;28;20225;-75
2022/03/26 03:33:22;;;;;;;19.90;11.57;;;;;;;;;;5116553;28;20175;-74
2022/03/26 03:35:48;;;;;;;19.60;11.30;;;;;;;;;;5115345;28;20176;-74
2022/03/26 03:38:14;;;;;;;17.90;10.77;;;;;;;;;;5115457;28;20178;-74
2022/03/26 03:40:40;;;;;;;20.70;11.77;;;;;;;;;;5098235;28;20307;-74
2022/03/26 03:43:06;;;;;;;18.77;11.20;;;;;;;;;;5115285;28;20181;-74
2022/03/26 03:45:32;;;;;;;19.47;11.30;;;;;;;;;;5115322;28;20171;-75
2022/03/26 03:47:58;;;;;;;19.30;10.83;;;;;;;;;;5098358;28;20187;-75
2022/03/26 03:50:25;;;;;;;18.27;10.47;;;;;;;;;;5098150;28;20224;-75
2022/03/26 03:52:51;;;;;;;24.80;11.07;;;;;;;;;;5114852;28;20261;-74
2022/03/26 03:55:17;;;;;;;22.57;11.63;;;;;;;;;;5098428;28;20183;-75
2022/03/26 03:57:45;;;;;;;18.77;10.57;;;;;;;;;;5098000;28;20709;-75
2022/03/26 04:00:11;;;;;;;21.17;11.27;;;;;;;;;;5114826;28;20240;-75
2022/03/26 04:02:37;;;;;;;19.87;11.30;;;;;;;;;;5098211;28;20178;-75
2022/03/26 04:05:04;;;;;;;19.33;11.00;;;;;;;;;;5098315;28;20586;-75
2022/03/26 04:07:30;;;;;;;19.10;11.00;;;;;;;;;;5114738;28;20214;-74
2022/03/26 04:09:56;;;;;;;20.00;11.10;;;;;;;;;;5097703;28;20568;-75
2022/03/26 04:12:22;;;;;;;18.00;10.93;;;;;;;;;;5114491;28;20212;-74
2022/03/26 04:14:48;;;;;;;25.17;11.33;;;;;;;;;;5097743;28;20184;-75
2022/03/26 04:17:14;;;;;;;18.30;11.20;;;;;;;;;;5114626;28;20644;-75
2022/03/26 04:19:41;;;;;;;19.50;10.70;;;;;;;;;;5097845;28;20628;-74
2022/03/26 04:22:07;;;;;;;19.77;11.27;;;;;;;;;;5097508;28;20197;-75
2022/03/26 04:24:35;;;;;;;20.10;11.00;;;;;;;;;;5114769;28;20180;-75
2022/03/26 04:27:02;;;;;;;19.27;11.60;;;;;;;;;;5114656;28;20235;-75
2022/03/26 04:29:28;;;;;;;19.63;11.10;;;;;;;;;;5115599;28;20203;-75
2022/03/26 04:31:54;;;;;;;19.67;11.17;;;;;;;;;;5114113;28;20286;-75
2022/03/26 04:34:20;;;;;;;19.33;10.43;;;;;;;;;;5097547;28;20178;-75
2022/03/26 04:36:46;;;;;;;18.87;10.27;;;;;;;;;;5114442;28;20194;-75
2022/03/26 04:39:13;;;;;;;18.27;10.50;;;;;;;;;;5097431;28;20206;-75
2022/03/26 04:41:39;;;;;;;19.10;11.40;;;;;;;;;;5097089;28;20198;-75
2022/03/26 04:44:05;;;;;;;22.60;11.93;;;;;;;;;;5097514;28;20177;-75
2022/03/26 04:46:31;;;;;;;19.67;11.03;;;;;;;;;;5097399;28;20236;-75
2022/03/26 04:48:57;;;;;;;21.13;11.43;;;;;;;;;;5114331;28;20606;-74
2022/03/26 04:51:23;;;;;;;20.97;11.00;;;;;;;;;;5113733;28;20203;-75
2022/03/26 04:53:49;;;;;;;21.30;11.80;;;;;;;;;;5096999;28;20643;-75
2022/03/26 04:56:15;;;;;;;21.80;12.07;;;;;;;;;;5113888;28;20634;-74
2022/03/26 04:58:41;;;;;;;20.03;11.37;;;;;;;;;;5113894;28;20250;-75
2022/03/26 05:01:07;;;;;;;21.80;11.43;;;;;;;;;;5096865;28;20201;-75
2022/03/26 05:03:33;;;;;;;20.83;11.47;;;;;;;;;;5096629;28;20176;-75
2022/03/26 05:05:59;;;;;;;21.97;12.03;;;;;;;;;;5113539;28;20173;-75
2022/03/26 05:08:25;;;;;;;21.00;11.83;;;;;;;;;;5113468;28;20183;-75
2022/03/26 05:10:52;;;;;;;21.63;11.40;;;;;;;;;;5113413;28;20566;-75
2022/03/26 05:13:18;;;;;;;18.73;11.07;;;;;;;;;;5113458;28;20175;-74
2022/03/26 05:15:44;;;;;;;20.40;10.93;;;;;;;;;;5113761;28;20190;-75
2022/03/26 05:18:10;;;;;;;21.53;11.37;;;;;;;;;;5113660;28;20233;-74
2022/03/26 05:20:36;;;;;;;20.87;11.03;;;;;;;;;;5114263;28;20211;-75
2022/03/26 05:23:02;;;;;;;19.33;10.87;;;;;;;;;;5113108;28;20184;-75
2022/03/26 05:25:29;;;;;;;20.97;11.27;;;;;;;;;;5096376;28;20175;-75
2022/03/26 05:27:55;;;;;;;20.70;10.90;;;;;;;;;;5113466;28;20173;-75
2022/03/26 05:30:22;;;;;;;22.77;11.27;;;;;;;;;;5113256;28;20223;-74
2022/03/26 05:32:48;;;;;;;22.67;12.03;;;;;;;;;;5114288;28;20183;-75
2022/03/26 05:35:14;;;;;;;22.47;12.07;;;;;;;;;;5096172;28;20185;-74
2022/03/26 05:37:44;;;;;;;20.27;11.60;;;;;;;;;;5113071;28;20401;-74
2022/03/26 05:40:11;;;;;;;19.93;11.33;;;;;;;;;;5095965;28;20214;-74
2022/03/26 05:42:38;;;;;;;21.10;12.27;;;;;;;;;;5113101;28;20176;-75
2022/03/26 05:45:05;;;;;;;19.87;11.70;;;;;;;;;;5114138;28;20164;-74
2022/03/26 05:47:31;;;;;;;21.57;12.40;;;;;;;;;;5095926;28;20185;-74
2022/03/26 05:49:57;;;;;;;19.90;11.97;;;;;;;;;;5096091;28;20275;-74
2022/03/26 05:52:24;;;;;;;22.53;11.73;;;;;;;;;;5112633;28;20178;-74
2022/03/26 05:54:50;;;;;;;24.37;11.60;;;;;;;;;;5113073;28;20609;-74
2022/03/26 05:57:18;;;;;;;19.53;10.77;;;;;;;;;;5112896;28;20338;-74
2022/03/26 05:59:44;;;;;;;17.10;10.83;;;;;;;;;;5112768;28;20227;-74
2022/03/26 06:02:12;;;;;;;20.17;11.87;;;;;;;;;;5095631;28;20208;-74
2022/03/26 06:04:38;;;;;;;20.77;11.53;;;;;;;;;;5096150;28;20263;-74
2022/03/26 06:07:04;;;;;;;22.73;11.70;;;;;;;;;;5112515;28;20596;-74
2022/03/26 06:09:30;;;;;;;20.87;11.57;;;;;;;;;;5095914;28;20177;-73
2022/03/26 06:11:56;;;;;;;20.40;11.73;;;;;;;;;;5095395;28;20181;-73
2022/03/26 06:14:23;;;;;;;22.03;11.77;;;;;;;;;;5095526;28;20180;-74
2022/03/26 06:16:49;;;;;;;23.17;11.50;;;;;;;;;;5095675;28;20196;-74
2022/03/26 06:19:15;;;;;;;12.90;8.47;;;;;;;;;;5095483;28;20200;-75
2022/03/26 06:21:41;;;;;;;18.23;10.07;;;;;;;;;;5112166;28;20223;-75
2022/03/26 06:24:07;;;;;;;18.17;10.23;;;;;;;;;;5112567;28;20235;-75
2022/03/26 06:26:36;;;;;;;18.23;10.80;;;;;;;;;;5112487;28;20177;-75
2022/03/26 06:29:02;;;;;;;17.30;10.87;;;;;;;;;;5112219;28;20182;-76
2022/03/26 06:31:28;;;;;;;19.27;11.00;;;;;;;;;;5111993;28;20684;-75
2022/03/26 06:33:54;;;;;;;20.17;11.83;;;;;;;;;;5111194;28;20182;-75
2022/03/26 06:36:20;;;;;;;19.80;11.97;;;;;;;;;;5112271;28;20187;-74
2022/03/26 06:38:46;;;;;;;20.27;12.03;;;;;;;;;;5113118;28;20167;-74
2022/03/26 06:41:12;;;;;;;21.40;12.17;;;;;;;;;;5095285;28;20256;-74
2022/03/26 06:43:39;;;;;;;21.17;11.73;;;;;;;;;;5094902;28;20177;-75
2022/03/26 06:46:05;;;;;;;23.27;12.77;;;;;;;;;;5095283;28;20684;-74
2022/03/26 06:48:32;;;;;;;23.33;12.43;;;;;;;;;;5112185;28;20178;-74
2022/03/26 06:51:01;;;;;;;20.23;11.93;;;;;;;;;;5111774;28;20263;-74
2022/03/26 06:53:28;;;;;;;23.33;12.60;;;;;;;;;;5111996;28;20210;-75
2022/03/26 06:55:54;;;;;;;21.80;12.43;;;;;;;;;;5095250;28;20182;-73
2022/03/26 06:58:20;;;;;;;19.70;11.67;;;;;;;;;;5112129;28;20183;-73
2022/03/26 07:00:46;;;;;;;23.03;12.97;;;;;;;;;;5094728;28;20221;-73
2022/03/26 07:03:12;;;;;;;24.27;13.20;;;;;;;;;;5111687;28;20171;-75
2022/03/26 07:05:38;;;;;;;25.37;13.00;;;;;;;;;;5095227;28;20177;-73
2022/03/26 07:08:37;;;;;;;22.37;12.83;;;;;;;;;;5094830;28;20178;-73
2022/03/26 07:11:03;;;;;;;24.53;12.73;;;;;;;;;;5111879;28;20342;-73
2022/03/26 07:13:29;;;;;;;25.77;13.37;;;;;;;;;;5111639;28;20259;-73
2022/03/26 07:15:56;;;;;;;26.43;14.40;;;;;;;;;;5111677;28;20267;-73
2022/03/26 07:18:22;;;;;;;24.57;12.77;;;;;;;;;;5112835;28;20172;-73
2022/03/26 07:20:48;;;;;;;25.37;14.37;;;;;;;;;;5094838;28;20696;-73
2022/03/26 07:23:14;;;;;;;26.93;14.13;;;;;;;;;;5111430;28;20202;-73
2022/03/26 07:25:40;;;;;;;24.67;13.17;;;;;;;;;;5111672;28;20205;-73
2022/03/26 07:28:07;;;;;;;23.23;13.30;;;;;;;;;;5111635;28;20237;-73
2022/03/26 07:30:33;;;;;;;23.97;14.47;;;;;;;;;;5094536;28;20244;-73
2022/03/26 07:33:00;;;;;;;24.47;13.80;;;;;;;;;;5111588;28;20186;-73
2022/03/26 07:35:26;;;;;;;23.77;14.40;;;;;;;;;;5094780;28;20174;-73
2022/03/26 07:37:52;;;;;;;25.57;13.90;;;;;;;;;;5112655;28;20179;-73
2022/03/26 07:40:18;;;;;;;26.83;14.10;;;;;;;;;;5111304;28;20213;-73
2022/03/26 07:42:44;;;;;;;24.00;13.13;;;;;;;;;;5111387;28;20173;-73
2022/03/26 07:45:10;;;;;;;23.07;13.10;;;;;;;;;;5113751;28;20175;-73
2022/03/26 07:47:37;;;;;;;24.20;14.40;;;;;;;;;;5115259;28;20231;-73
2022/03/26 07:50:04;;;;;;;26.17;15.07;;;;;;;;;;5114201;28;20198;-73
2022/03/26 07:52:30;;;;;;;29.60;15.60;;;;;;;;;;5115263;28;20167;-73
2022/03/26 07:54:56;;;;;;;32.13;14.87;;;;;;;;;;5097237;28;20640;-73
2022/03/26 07:57:22;;;;;;;25.00;14.50;;;;;;;;;;5097376;28;20186;-73
2022/03/26 07:59:48;;;;;;;27.03;15.67;;;;;;;;;;5097775;28;20673;-73
2022/03/26 08:02:14;;;;;;;29.83;15.33;;;;;;;;;;5097761;28;20212;-73
2022/03/26 08:04:40;;;;;;;23.70;13.30;;;;;;;;;;5097640;28;20235;-73
2022/03/26 08:07:07;;;;;;;26.97;14.50;;;;;;;;;;5097570;28;20270;-73
2022/03/26 08:09:33;;;;;;;27.13;14.70;;;;;;;;;;5115411;28;20174;-73
2022/03/26 08:11:59;;;;;;;29.70;15.83;;;;;;;;;;5114124;28;20179;-73
2022/03/26 08:14:25;;;;;;;27.87;14.93;;;;;;;;;;5115457;28;20171;-73
2022/03/26 08:16:52;;;;;;;27.63;14.13;;;;;;;;;;5097499;28;20187;-73
2022/03/26 08:19:18;;;;;;;24.93;13.97;;;;;;;;;;5097352;28;20252;-73
2022/03/26 08:21:44;;;;;;;23.67;14.10;;;;;;;;;;5097005;28;20196;-74
2022/03/26 08:24:12;;;;;;;26.30;14.43;;;;;;;;;;5097004;28;20272;-73
2022/03/26 08:26:38;;;;;;;25.63;14.37;;;;;;;;;;5097446;28;20179;-73
2022/03/26 08:29:04;;;;;;;24.93;14.03;;;;;;;;;;5097059;28;20187;-73
2022/03/26 08:31:31;;;;;;;28.27;15.17;;;;;;;;;;5088223;22;20648;-74
2022/03/26 08:33:59;;;;;;;27.23;15.47;;;;;;;;;;5093440;28;20200;-74
2022/03/26 08:36:26;;;;;;;22.77;13.70;;;;;;;;;;5093386;28;20180;-74
2022/03/26 08:38:52;;;;;;;26.03;14.37;;;;;;;;;;5093471;28;20255;-74
2022/03/26 08:41:20;;;;;;;24.33;14.33;;;;;;;;;;5093136;28;20189;-74
2022/03/26 08:43:47;;;;;;;23.07;13.80;;;;;;;;;;5093101;28;20691;-74
2022/03/26 08:46:13;;;;;;;26.03;14.70;;;;;;;;;;5094632;28;20163;-74
2022/03/26 08:48:39;;;;;;;28.30;15.00;;;;;;;;;;5076487;28;20178;-74
2022/03/26 08:51:05;;;;;;;25.27;14.43;;;;;;;;;;5093093;28;20207;-74
2022/03/26 08:53:32;;;;;;;26.30;14.73;;;;;;;;;;5076492;28;20662;-74
2022/03/26 08:55:58;;;;;;;25.40;14.97;;;;;;;;;;5092315;28;20240;-74
2022/03/26 08:58:24;;;;;;;24.90;15.33;;;;;;;;;;5092771;28;20187;-74
2022/03/26 09:00:52;;;;;;;26.10;15.00;;;;;;;;;;5092612;28;20211;-74
2022/03/26 09:03:20;;;;;;;25.03;14.47;;;;;;;;;;5092820;28;20246;-74
2022/03/26 09:05:47;;;;;;;26.60;15.17;;;;;;;;;;5076397;28;20200;-74
2022/03/26 09:08:13;;;;;;;25.83;15.17;;;;;;;;;;5093049;28;20183;-74
2022/03/26 09:10:39;;;;;;;24.93;14.90;;;;;;;;;;5092881;28;20204;-74
2022/03/26 09:13:05;;;;;;;25.83;15.50;;;;;;;;;;5092521;28;20188;-74
2022/03/26 09:15:31;;;;;;;24.43;14.53;;;;;;;;;;5075732;28;20185;-74
2022/03/26 09:17:58;;;;;;;24.70;14.63;;;;;;;;;;5075794;28;20182;-74
2022/03/26 09:20:24;;;;;;;25.13;15.33;;;;;;;;;;5093073;28;20261;-76
2022/03/26 09:22:50;;;;;;;27.77;15.47;;;;;;;;;;5076249;28;20178;-76
2022/03/26 09:25:17;;;;;;;31.17;15.83;;;;;;;;;;5076216;28;20278;-77
2022/03/26 09:27:43;;;;;;;25.93;14.60;;;;;;;;;;5076727;28;20185;-76
2022/03/26 09:30:09;;;;;;;29.90;15.80;;;;;;;;;;5096306;28;20207;-75
2022/03/26 09:32:35;;;;;;;25.10;14.83;;;;;;;;;;5079524;28;20182;-75
2022/03/26 09:35:01;;;;;;;26.60;15.43;;;;;;;;;;5114357;28;20177;-75
2022/03/26 09:37:27;;;;;;;25.60;15.20;;;;;;;;;;5079244;28;20205;-75
2022/03/26 09:39:54;;;;;;;28.93;16.27;;;;;;;;;;5079026;28;20577;-74
2022/03/26 09:42:23;;;;;;;26.27;16.63;;;;;;;;;;5095703;28;20227;-75
2022/03/26 09:44:50;;;;;;;26.93;15.73;;;;;;;;;;5096228;28;20167;-74
2022/03/26 09:47:16;;;;;;;24.70;15.63;;;;;;;;;;5096186;28;20280;-75
2022/03/26 09:49:42;;;;;;;25.87;16.03;;;;;;;;;;5114299;28;20649;-75
2022/03/26 09:52:09;;;;;;;28.30;16.53;;;;;;;;;;5095330;28;20195;-75
2022/03/26 09:54:36;;;;;;;24.50;15.53;;;;;;;;;;5095651;28;20652;-74
2022/03/26 09:57:02;;;;;;;32.90;19.60;;;;;;;;;;5096055;28;20180;-75
2022/03/26 09:59:29;;;;;;;28.27;17.00;;;;;;;;;;5095865;28;20196;-74
2022/03/26 10:01:55;;;;;;;25.87;15.73;;;;;;;;;;5095544;28;20252;-74
2022/03/26 10:04:22;;;;;;;29.27;17.17;;;;;;;;;;5079189;28;20188;-74
2022/03/26 10:06:48;;;;;;;28.57;16.97;;;;;;;;;;5113550;28;20164;-74
2022/03/26 10:09:24;;;;;;;28.43;15.83;;;;;;;;;;5113712;28;20534;-74
2022/03/26 10:11:58;;;;;;;27.17;16.23;;;;;;;;;;5095445;28;20196;-74
2022/03/26 10:14:24;;;;;;;31.50;17.43;;;;;;;;;;5095621;28;20167;-74
2022/03/26 10:16:51;;;;;;;24.77;15.80;;;;;;;;;;5113563;28;20696;-74
2022/03/26 10:19:23;;;;;;;29.20;16.90;;;;;;;;;;5094590;28;20657;-74
2022/03/26 10:21:49;;;;;;;26.77;16.10;;;;;;;;;;5077848;28;20563;-74
2022/03/26 10:24:15;;;;;;;25.90;16.63;;;;;;;;;;5078662;28;20232;-74
2022/03/26 10:26:42;;;;;;;24.60;15.83;;;;;;;;;;5078638;28;20176;-74
2022/03/26 10:29:10;;;;;;;25.27;15.63;;;;;;;;;;5095304;28;20266;-74
2022/03/26 10:34:20;;;;;;;24.93;15.63;;;;;;;;;;5098369;28;20182;-74
2022/03/26 10:36:46;;;;;;;27.10;16.23;;;;;;;;;;5095000;28;20637;-74
2022/03/26 10:39:17;;;;;;;28.17;16.13;;;;;;;;;;5095355;28;20175;-74
2022/03/26 10:41:43;;;;;;;21.33;14.13;;;;;;;;;;5112928;28;20653;-74
2022/03/26 10:44:13;;;;;;;25.57;15.47;;;;;;;;;;5095230;28;20172;-74
2022/03/26 10:46:47;;;;;;;24.30;15.00;;;;;;;;;;5095191;28;20171;-74
2022/03/26 10:49:14;;;;;;;24.17;13.70;;;;;;;;;;5113320;28;20156;-74
2022/03/26 10:51:41;;;;;;;21.73;13.77;;;;;;;;;;5078177;28;20195;-74
2022/03/26 10:54:15;;;;;;;23.07;15.00;;;;;;;;;;5095188;28;20175;-74
2022/03/26 10:56:42;;;;;;;23.17;15.40;;;;;;;;;;5095390;28;20171;-74
2022/03/26 10:59:08;;;;;;;27.77;15.70;;;;;;;;;;5078121;28;20187;-74
2022/03/26 11:01:35;;;;;;;24.60;15.23;;;;;;;;;;5092252;28;20199;-75
2022/03/26 11:04:02;;;;;;;23.27;14.87;;;;;;;;;;5094545;28;20262;-74
2022/03/26 11:06:28;;;;;;;22.20;14.07;;;;;;;;;;5113015;28;20182;-75
2022/03/26 11:09:02;;;;;;;24.80;15.13;;;;;;;;;;5094573;28;20183;-74
2022/03/26 11:11:29;;;;;;;21.73;13.90;;;;;;;;;;5095463;28;20717;-75
2022/03/26 11:13:59;;;;;;;20.43;13.67;;;;;;;;;;5112930;28;20207;-74
2022/03/26 11:16:41;;;;;;;23.13;13.17;;;;;;;;;;5094911;28;20175;-74
2022/03/26 11:19:22;;;;;;;22.17;12.50;;;;;;;;;;5095170;28;20217;-76
2022/03/26 11:21:51;;;;;;;19.23;12.13;;;;;;;;;;5084439;28;20220;-76
2022/03/26 11:24:26;;;;;;;18.63;11.70;;;;;;;;;;5078482;28;20582;-76
2022/03/26 11:26:55;;;;;;;17.80;11.97;;;;;;;;;;5078487;28;20168;-76
2022/03/26 11:29:27;;;;;;;19.60;11.60;;;;;;;;;;5078722;28;20259;-75
2022/03/26 11:31:53;;;;;;;19.60;12.83;;;;;;;;;;5078081;28;20681;-75
2022/03/26 11:34:19;;;;;;;17.90;12.13;;;;;;;;;;5078459;28;20180;-76
2022/03/26 11:36:45;;;;;;;17.07;10.30;;;;;;;;;;5061899;28;20176;-75
2022/03/26 11:39:13;;;;;;;18.03;10.03;;;;;;;;;;5081697;28;20821;-75
2022/03/26 11:41:39;;;;;;;17.77;11.00;;;;;;;;;;5077873;28;20196;-75
2022/03/26 11:44:07;;;;;;;16.60;8.57;;;;;;;;;;5096149;28;20177;-75
2022/03/26 11:52:40;;;;;;;16.17;9.73;;;;;;;;;;5002473;28;20195;-75
2022/03/26 11:55:19;;;;;;;16.30;9.13;;;;;;;;;;5013486;28;20191;-75
2022/03/26 11:57:45;;;;;;;13.87;8.77;;;;;;;;;;5050864;28;20191;-75
2022/03/26 12:00:19;;;;;;;14.17;8.40;;;;;;;;;;5077889;28;20228;-75
2022/03/26 12:02:49;;;;;;;13.47;8.77;;;;;;;;;;5077701;28;20574;-75
2022/03/26 12:08:10;;;;;;;13.60;8.80;;;;;;;;;;5096006;28;20191;-75
2022/03/26 12:10:36;;;;;;;15.87;9.47;;;;;;;;;;5077350;28;20239;-75
2022/03/26 12:13:03;;;;;;;15.23;9.20;;;;;;;;;;5077707;28;20211;-75
2022/03/26 12:15:30;;;;;;;16.57;10.30;;;;;;;;;;5077407;28;20263;-75
2022/03/26 12:18:09;;;;;;;16.20;10.10;;;;;;;;;;5077433;28;20231;-75
2022/03/26 12:20:37;;;;;;;14.27;10.00;;;;;;;;;;5060982;28;20288;-75
2022/03/26 12:23:03;;;;;;;14.90;9.33;;;;;;;;;;5095210;28;20168;-75
2022/03/26 12:25:37;;;;;;;14.00;9.53;;;;;;;;;;5077293;28;20218;-76
2022/03/26 12:28:03;;;;;;;15.45;10.35;;;;;;;;;;5095293;28;20210;-75
2022/03/26 12:30:30;;;;;;;19.15;11.23;;;;;;;;;;5075851;28;20682;-75
2022/03/26 12:32:58;;;;;;;21.95;11.68;;;;;;;;;;5076568;28;20613;-75
2022/03/26 12:35:25;;;;;;;18.88;11.13;;;;;;;;;;5060807;28;20252;-75
2022/03/26 12:37:51;;;;;;;18.33;12.30;;;;;;;;;;5077169;28;20180;-75
2022/03/26 12:40:17;;;;;;;18.15;12.50;;;;;;;;;;5076778;28;20211;-75
2022/03/26 12:42:44;;;;;;;18.20;12.32;;;;;;;;;;5077144;28;20168;-75
2022/03/26 12:45:14;;;;;;;19.08;13.45;;;;;;;;;;5077175;28;20278;-75
2022/03/26 12:47:43;;;;;;;17.13;12.65;;;;;;;;;;5077112;28;20165;-75
2022/03/26 12:50:09;;;;;;;17.23;12.48;;;;;;;;;;5076973;28;20184;-75
2022/03/26 12:52:36;;;;;;;19.90;14.18;;;;;;;;;;5076505;28;20643;-75
2022/03/26 12:55:02;;;;;;;22.02;13.25;;;;;;;;;;5060384;28;20568;-75
2022/03/26 13:00:13;;;;;;;17.90;13.18;;;;;;;;;;5094679;28;20211;-74
2022/03/26 13:02:39;;;;;;;17.77;12.10;;;;;;;;;;5076257;28;20169;-75
2022/03/26 13:05:09;;;;;;;18.85;13.70;;;;;;;;;;5060182;28;20309;-75
2022/03/26 13:07:38;;;;;;;18.65;12.95;;;;;;;;;;5076675;28;20541;-75
2022/03/26 13:10:04;;;;;;;18.38;12.82;;;;;;;;;;5076455;28;20221;-74
2022/03/26 13:12:31;;;;;;;21.35;12.80;;;;;;;;;;5059982;28;20176;-75
2022/03/26 13:14:57;;;;;;;19.17;12.80;;;;;;;;;;5094356;28;20263;-75
2022/03/26 13:17:24;;;;;;;16.40;11.73;;;;;;;;;;5076162;28;20173;-75
2022/03/26 13:19:50;;;;;;;19.27;12.98;;;;;;;;;;5076300;28;20245;-75
2022/03/26 13:22:17;;;;;;;18.98;12.43;;;;;;;;;;5059737;28;20172;-75
2022/03/26 13:24:53;;;;;;;16.20;11.35;;;;;;;;;;5094367;28;20156;-75
2022/03/26 13:27:19;;;;;;;15.05;10.63;;;;;;;;;;5059788;28;20175;-75
2022/03/26 13:29:46;;;;;;;20.75;11.75;;;;;;;;;;5094048;28;20174;-75
2022/03/26 13:32:12;;;;;;;15.63;10.85;;;;;;;;;;5094137;28;20184;-75
2022/03/26 13:34:40;;;;;;;17.42;11.15;;;;;;;;;;5093985;28;20241;-75
2022/03/26 13:37:09;;;;;;;12.55;9.18;;;;;;;;;;5076090;28;20186;-75
2022/03/26 13:39:38;;;;;;;14.20;10.00;;;;;;;;;;5079818;28;20195;-75
2022/03/26 13:42:15;;;;;;;13.27;9.02;;;;;;;;;;5075502;28;20243;-75
2022/03/26 13:44:43;;;;;;;13.50;9.02;;;;;;;;;;5075689;28;20172;-75
2022/03/26 13:47:14;;;;;;;12.63;8.52;;;;;;;;;;5075620;28;20179;-75
2022/03/26 13:49:41;;;;;;;13.45;8.73;;;;;;;;;;5075834;28;20168;-75
2022/03/26 13:52:21;;;;;;;12.25;7.65;;;;;;;;;;5075510;28;20191;-75
2022/03/26 13:54:48;;;;;;;10.07;7.18;;;;;;;;;;5075881;28;20176;-75
2022/03/26 13:57:14;;;;;;;8.85;7.03;;;;;;;;;;5058829;28;20168;-75
2022/03/26 13:59:47;;;;;;;12.18;7.00;;;;;;;;;;5075598;28;20192;-75
2022/03/26 14:02:13;;;;;;;11.50;6.97;;;;;;;;;;5093510;28;20149;-75
2022/03/26 14:04:39;;;;;;;11.90;6.68;;;;;;;;;;5075573;28;20244;-75
2022/03/26 14:07:09;;;;;;;9.10;6.53;;;;;;;;;;5058682;28;20583;-75
2022/03/26 14:09:35;;;;;;;9.40;6.28;;;;;;;;;;5075570;28;20168;-75
2022/03/26 14:12:03;;;;;;;9.23;5.97;;;;;;;;;;5075013;28;20230;-75
2022/03/26 14:14:29;;;;;;;8.25;6.00;;;;;;;;;;5093368;28;20180;-75
2022/03/26 14:16:55;;;;;;;8.63;5.97;;;;;;;;;;5075396;28;20243;-75
2022/03/26 14:19:21;;;;;;;10.63;6.30;;;;;;;;;;5074976;28;20611;-75
2022/03/26 14:21:48;;;;;;;8.40;5.65;;;;;;;;;;5074806;28;20216;-75
2022/03/26 14:24:16;;;;;;;10.63;5.50;;;;;;;;;;5058418;28;20206;-75
2022/03/26 14:26:42;;;;;;;8.15;5.38;;;;;;;;;;5075196;28;20611;-75
2022/03/26 14:29:08;;;;;;;6.50;4.85;;;;;;;;;;5075038;28;20255;-75
2022/03/26 14:31:34;;;;;;;6.38;4.57;;;;;;;;;;5075745;23;20747;-75